createdAt,value
2022-10-22T00:02:08.221Z,101324.13
2022-10-22T00:04:36.676Z,101306.25
2022-10-22T00:07:04.651Z,101326.63
2022-10-22T00:09:36.488Z,101295.19
2022-10-22T00:12:05.036Z,101282.38
2022-10-22T00:14:33.028Z,101321.38
2022-10-22T00:17:06.969Z,101313.69
2022-10-22T00:19:41.985Z,101317.91
2022-10-22T00:22:14.596Z,101305.09
2022-10-22T00:24:42.650Z,101281.31
2022-10-22T00:27:12.569Z,101314.44
2022-10-22T00:29:44.633Z,101311.81
2022-10-22T00:32:12.404Z,101311.88
2022-10-22T00:34:41.572Z,101302.44
2022-10-22T00:37:13.484Z,101305.06
2022-10-22T00:39:41.338Z,101300.75
2022-10-22T00:42:13.679Z,101305.00
2022-10-22T00:45:09.283Z,101295.56
2022-10-22T00:47:42.596Z,101290.50
2022-10-22T00:50:18.957Z,101290.53
2022-10-22T00:52:47.587Z,101282.94
2022-10-22T00:55:18.509Z,101282.06
2022-10-22T00:57:49.233Z,101274.34
2022-10-22T01:00:18.231Z,101275.97
2022-10-22T01:02:49.094Z,101275.97
2022-10-22T01:05:21.302Z,101241.97
2022-10-22T01:08:03.473Z,101281.03
2022-10-22T01:10:50.690Z,101264.91
2022-10-22T01:13:30.291Z,101253.69
2022-10-22T01:16:09.360Z,101222.38
2022-10-22T01:18:48.277Z,101268.09
2022-10-22T01:21:34.061Z,101229.91
2022-10-22T01:24:22.040Z,101272.38
2022-10-22T01:27:13.165Z,101265.53
2022-10-22T01:29:49.190Z,101234.94
2022-10-22T01:32:22.071Z,101267.16
2022-10-22T01:34:55.596Z,101256.84
2022-10-22T01:37:27.010Z,101262.81
2022-10-22T01:39:58.257Z,101225.44
2022-10-22T01:42:26.148Z,101256.72
2022-10-22T01:44:57.347Z,101265.25
2022-10-22T01:47:40.992Z,101266.09
2022-10-22T01:50:47.829Z,101259.41
2022-10-22T01:53:34.032Z,101232.28
2022-10-22T01:56:25.584Z,101202.66
2022-10-22T01:59:05.788Z,101229.78
2022-10-22T02:01:43.353Z,101252.63
2022-10-22T02:04:18.417Z,101252.72
2022-10-22T02:06:51.281Z,101256.16
2022-10-22T02:09:23.721Z,101252.78
2022-10-22T02:11:52.699Z,101251.16
2022-10-22T02:14:21.973Z,101247.00
2022-10-22T02:16:53.443Z,101240.16
2022-10-22T02:19:26.814Z,101244.47
2022-10-22T02:21:55.818Z,101238.59
2022-10-22T02:24:26.848Z,101203.78
2022-10-22T02:27:04.164Z,101210.63
2022-10-22T02:29:39.676Z,101227.53
2022-10-22T02:32:14.344Z,101223.31
2022-10-22T02:34:46.078Z,101213.91
2022-10-22T02:37:17.508Z,101215.53
2022-10-22T02:39:48.296Z,101194.22
2022-10-22T02:42:16.187Z,101186.63
2022-10-22T02:44:46.002Z,101155.25
2022-10-22T02:47:17.082Z,101176.41
2022-10-22T02:49:49.238Z,101210.31
2022-10-22T02:52:17.005Z,101221.31
2022-10-22T02:54:44.817Z,101212.63
2022-10-22T02:57:15.007Z,101211.81
2022-10-22T02:59:42.924Z,101216.91
2022-10-22T03:02:10.740Z,101222.06
2022-10-22T03:04:43.636Z,101197.25
2022-10-22T03:07:11.561Z,101202.41
2022-10-22T03:09:39.366Z,101213.38
2022-10-22T03:12:11.458Z,101209.13
2022-10-22T03:14:39.222Z,101210.78
2022-10-22T03:17:06.985Z,101208.03
2022-10-22T03:19:39.165Z,101205.44
2022-10-22T03:22:12.525Z,101213.94
2022-10-22T03:24:47.377Z,101211.44
2022-10-22T03:27:17.882Z,101199.59
2022-10-22T03:29:51.291Z,101205.50
2022-10-22T03:32:19.092Z,101192.00
2022-10-22T03:34:47.013Z,101204.72
2022-10-22T03:37:20.361Z,101153.84
2022-10-22T03:39:48.420Z,101206.38
2022-10-22T03:42:17.280Z,101156.41
2022-10-22T03:44:49.379Z,101188.53
2022-10-22T03:47:17.338Z,101199.59
2022-10-22T03:49:45.332Z,101195.34
2022-10-22T03:52:19.223Z,101152.16
2022-10-22T03:54:46.946Z,101179.28
2022-10-22T03:57:14.819Z,101187.75
2022-10-22T03:59:49.133Z,101195.41
2022-10-22T04:02:16.919Z,101189.50
2022-10-22T04:04:44.857Z,101154.66
2022-10-22T04:07:14.777Z,101176.66
2022-10-22T04:09:43.922Z,101171.47
2022-10-22T04:12:11.699Z,101168.50
2022-10-22T04:14:43.789Z,101172.19
2022-10-22T04:17:11.615Z,101129.13
2022-10-22T04:19:39.505Z,101171.69
2022-10-22T04:22:11.469Z,101174.22
2022-10-22T04:24:39.514Z,101179.44
2022-10-22T04:27:08.742Z,101175.25
2022-10-22T04:29:40.830Z,101173.63
2022-10-22T04:32:08.644Z,101147.38
2022-10-22T04:34:36.464Z,101175.47
2022-10-22T04:37:08.462Z,101117.91
2022-10-22T04:39:38.489Z,101176.50
2022-10-22T04:42:06.431Z,101169.78
2022-10-22T04:44:37.834Z,101158.84
2022-10-22T04:47:07.972Z,101154.66
2022-10-22T04:49:35.721Z,101152.16
2022-10-22T04:52:05.532Z,101153.94
2022-10-22T04:54:37.417Z,101151.41
2022-10-22T04:57:05.413Z,101153.13
2022-10-22T04:59:33.370Z,101105.59
2022-10-22T05:02:06.591Z,101151.50
2022-10-22T05:04:34.426Z,101142.88
2022-10-22T05:07:02.234Z,101143.84
2022-10-22T05:09:34.197Z,101137.06
2022-10-22T05:12:01.916Z,101108.25
2022-10-22T05:14:29.731Z,101082.78
2022-10-22T05:17:02.428Z,101132.81
2022-10-22T05:19:33.317Z,101104.88
2022-10-22T05:22:06.645Z,101110.78
2022-10-22T05:24:36.786Z,101129.44
2022-10-22T05:27:06.904Z,101125.19
2022-10-22T05:29:34.858Z,101105.66
2022-10-22T05:32:02.666Z,101095.41
2022-10-22T05:34:36.348Z,101117.38
2022-10-22T05:37:04.256Z,101108.88
2022-10-22T05:39:32.004Z,101106.31
2022-10-22T05:42:02.010Z,101109.69
2022-10-22T05:44:29.857Z,101111.31
2022-10-22T05:46:57.713Z,101055.34
2022-10-22T05:49:29.781Z,101110.13
2022-10-22T05:51:58.928Z,101112.53
2022-10-22T05:54:26.715Z,101115.88
2022-10-22T05:56:58.728Z,101077.41
2022-10-22T05:59:26.503Z,101111.06
2022-10-22T06:01:54.276Z,101111.00
2022-10-22T06:04:26.418Z,101100.97
2022-10-22T06:06:54.715Z,101077.09
2022-10-22T06:09:31.450Z,101106.00
2022-10-22T06:11:59.885Z,101105.97
2022-10-22T06:14:28.987Z,101082.13
2022-10-22T06:17:02.788Z,101104.91
2022-10-22T06:19:31.319Z,101089.56
2022-10-22T06:21:59.087Z,101098.66
2022-10-22T06:24:32.496Z,101094.00
2022-10-22T06:27:00.426Z,101092.41
2022-10-22T06:29:28.446Z,101096.50
2022-10-22T06:31:58.569Z,101063.22
2022-10-22T06:34:28.687Z,101096.25
2022-10-22T06:36:56.455Z,101009.03
2022-10-22T06:39:26.604Z,101049.34
2022-10-22T06:41:57.622Z,101085.44
2022-10-22T06:44:25.481Z,101089.47
2022-10-22T06:46:56.245Z,101076.97
2022-10-22T06:49:26.456Z,101090.53
2022-10-22T06:51:55.700Z,101089.72
2022-10-22T06:54:26.428Z,101090.28
2022-10-22T06:56:57.868Z,101094.59
2022-10-22T06:59:25.702Z,101092.50
2022-10-22T07:01:55.400Z,101096.94
2022-10-22T07:04:25.498Z,101089.16
2022-10-22T07:06:55.990Z,101097.63
2022-10-22T07:09:25.671Z,101092.25
2022-10-22T07:11:57.186Z,101097.97
2022-10-22T07:14:25.787Z,101101.09
2022-10-22T07:16:55.549Z,101081.91
2022-10-22T07:19:25.542Z,101094.41
2022-10-22T07:21:53.362Z,101099.00
2022-10-22T07:24:23.015Z,101099.09
2022-10-22T07:26:53.130Z,101105.44
2022-10-22T07:29:26.470Z,101093.75
2022-10-22T07:31:54.403Z,101075.88
2022-10-22T07:34:22.328Z,101051.19
2022-10-22T07:36:50.556Z,101101.69
2022-10-22T07:39:18.441Z,101103.25
2022-10-22T07:41:46.231Z,101096.03
2022-10-22T07:44:18.474Z,101106.97
2022-10-22T07:46:48.991Z,101084.13
2022-10-22T07:49:17.100Z,101063.34
2022-10-22T07:51:46.920Z,101052.31
2022-10-22T07:54:14.720Z,101098.78
2022-10-22T07:56:44.801Z,101094.44
2022-10-22T07:59:14.652Z,101062.06
2022-10-22T08:01:42.466Z,101066.50
2022-10-22T08:04:13.589Z,101095.03
2022-10-22T08:06:44.578Z,101094.16
2022-10-22T08:09:15.580Z,101096.72
2022-10-22T08:11:45.390Z,101088.16
2022-10-22T08:14:13.228Z,101092.31
2022-10-22T08:16:41.024Z,101102.09
2022-10-22T08:19:08.881Z,101091.19
2022-10-22T08:21:38.015Z,101089.06
2022-10-22T08:24:08.900Z,101090.91
2022-10-22T08:26:36.771Z,101094.47
2022-10-22T08:29:05.291Z,101095.25
2022-10-22T08:31:35.777Z,101097.72
2022-10-22T08:34:03.415Z,101095.31
2022-10-22T08:36:31.162Z,101060.22
2022-10-22T08:39:02.294Z,101086.91
2022-10-22T08:41:32.076Z,101065.84
2022-10-22T08:44:32.117Z,101090.88
2022-10-22T08:47:22.588Z,101091.53
2022-10-22T08:49:54.176Z,101094.78
2022-10-22T08:52:24.897Z,101073.56
2022-10-22T08:54:58.839Z,101096.03
2022-10-22T08:57:43.859Z,101093.88
2022-10-22T09:00:17.284Z,101094.63
2022-10-22T09:02:59.719Z,101051.50
2022-10-22T09:05:39.721Z,101087.66
2022-10-22T09:08:11.924Z,101076.75
2022-10-22T09:10:47.112Z,101079.84
2022-10-22T09:13:18.606Z,101082.28
2022-10-22T09:15:47.477Z,101084.78
2022-10-22T09:18:31.127Z,101066.69
2022-10-22T09:21:03.912Z,101072.50
2022-10-22T09:23:38.971Z,101064.50
2022-10-22T09:26:14.835Z,101059.69
2022-10-22T09:28:42.933Z,101060.19
2022-10-22T09:31:14.959Z,101069.59
2022-10-22T09:33:45.641Z,101025.63
2022-10-22T09:36:18.251Z,101062.44
2022-10-22T09:38:51.007Z,101070.81
2022-10-22T09:41:26.140Z,101062.78
2022-10-22T09:43:55.792Z,101067.00
2022-10-22T09:46:28.163Z,101072.59
2022-10-22T09:49:05.423Z,101066.34
2022-10-22T09:51:49.389Z,101061.59
2022-10-22T09:54:21.379Z,101057.84
2022-10-22T09:56:55.651Z,101057.66
2022-10-22T09:59:30.430Z,101052.31
2022-10-22T10:02:13.526Z,101044.44
2022-10-22T10:04:52.862Z,101036.81
2022-10-22T10:07:22.730Z,101036.22
2022-10-22T10:09:51.494Z,100999.31
2022-10-22T10:12:36.016Z,101004.78
2022-10-22T10:15:14.062Z,101024.09
2022-10-22T10:17:48.157Z,100986.97
2022-10-22T10:20:29.843Z,101028.38
2022-10-22T10:23:06.606Z,101023.38
2022-10-22T10:25:49.142Z,101013.47
2022-10-22T10:28:47.154Z,101009.91
2022-10-22T10:31:21.642Z,101010.69
2022-10-22T10:34:04.248Z,101009.63
2022-10-22T10:36:40.939Z,100995.91
2022-10-22T10:39:17.985Z,100999.63
2022-10-22T10:41:53.982Z,101000.59
2022-10-22T10:44:40.931Z,101006.19
2022-10-22T10:47:21.819Z,100990.06
2022-10-22T10:49:55.234Z,100983.22
2022-10-22T10:52:37.891Z,100986.84
2022-10-22T10:55:15.234Z,100985.94
2022-10-22T10:58:04.250Z,100983.59
2022-10-22T11:00:41.073Z,100978.34
2022-10-22T11:03:35.817Z,100982.63
2022-10-22T11:06:08.813Z,100973.78
2022-10-22T11:08:41.920Z,100948.44
2022-10-22T11:11:19.254Z,100962.47
2022-10-22T11:13:53.487Z,100937.00
2022-10-22T11:16:31.822Z,100963.34
2022-10-22T11:19:06.219Z,100950.00
2022-10-22T11:21:42.015Z,100966.91
2022-10-22T11:24:21.350Z,100944.91
2022-10-22T11:26:54.213Z,100961.47
2022-10-22T11:29:32.133Z,100959.06
2022-10-22T11:32:05.983Z,100931.28
2022-10-22T11:34:40.296Z,100957.44
2022-10-22T11:37:11.144Z,100954.84
2022-10-22T11:39:46.050Z,100948.75
2022-10-22T11:42:23.030Z,100940.09
2022-10-22T11:45:02.008Z,100936.56
2022-10-22T11:47:36.384Z,100940.25
2022-10-22T11:50:22.767Z,100931.56
2022-10-22T11:53:00.200Z,100935.25
2022-10-22T11:55:46.017Z,100921.25
2022-10-22T11:58:37.042Z,100897.00
2022-10-22T12:01:26.279Z,100923.13
2022-10-22T12:04:23.358Z,100917.63
2022-10-22T12:07:01.766Z,100914.53
2022-10-22T12:09:32.915Z,100912.78
2022-10-22T12:12:15.771Z,100914.41
2022-10-22T12:14:57.709Z,100912.72
2022-10-22T12:17:29.945Z,100903.22
2022-10-22T12:20:05.940Z,100904.44
2022-10-22T12:22:37.521Z,100902.38
2022-10-22T12:25:18.926Z,100899.88
2022-10-22T12:27:53.353Z,100895.19
2022-10-22T12:30:25.904Z,100895.38
2022-10-22T12:32:56.243Z,100878.38
2022-10-22T12:35:27.245Z,100899.06
2022-10-22T12:38:01.495Z,100896.09
2022-10-22T12:40:35.624Z,100898.84
2022-10-22T12:43:12.274Z,100871.09
2022-10-22T12:45:43.086Z,100895.00
2022-10-22T12:48:18.243Z,100900.75
2022-10-22T12:50:52.112Z,100887.66
2022-10-22T12:53:25.025Z,100860.03
2022-10-22T12:55:55.079Z,100829.72
2022-10-22T12:58:30.402Z,100893.41
2022-10-22T13:01:02.327Z,100889.19
2022-10-22T13:03:33.374Z,100883.34
2022-10-22T13:06:25.400Z,100878.84
2022-10-22T13:09:17.509Z,100878.72
2022-10-22T13:11:53.700Z,100888.69
2022-10-22T13:14:29.048Z,100883.84
2022-10-22T13:17:23.949Z,100879.94
2022-10-22T13:20:05.269Z,100876.97
2022-10-22T13:22:36.614Z,100849.94
2022-10-22T13:25:23.764Z,100867.28
2022-10-22T13:27:56.320Z,100855.06
2022-10-22T13:30:26.241Z,100866.38
2022-10-22T13:32:56.356Z,100862.03
2022-10-22T13:35:29.633Z,100865.13
2022-10-22T13:37:59.430Z,100865.47
2022-10-22T13:40:30.046Z,100862.88
2022-10-22T13:42:57.886Z,100859.97
2022-10-22T13:45:25.730Z,100868.03
2022-10-22T13:47:56.593Z,100829.59
2022-10-22T13:50:24.547Z,100848.25
2022-10-22T13:52:54.303Z,100837.59
2022-10-22T13:55:26.146Z,100839.66
2022-10-22T13:57:56.206Z,100858.25
2022-10-22T14:00:24.845Z,100858.09
2022-10-22T14:02:58.106Z,100860.56
2022-10-22T14:05:25.949Z,100866.56
2022-10-22T14:07:54.467Z,100857.31
2022-10-22T14:10:27.414Z,100817.94
2022-10-22T14:12:55.389Z,100853.59
2022-10-22T14:15:25.115Z,100849.03
2022-10-22T14:17:57.326Z,100850.72
2022-10-22T14:20:27.672Z,100850.09
2022-10-22T14:22:55.798Z,100846.41
2022-10-22T14:25:28.967Z,100818.28
2022-10-22T14:27:56.712Z,100851.28
2022-10-22T14:30:29.651Z,100828.84
2022-10-22T14:33:01.089Z,100806.34
2022-10-22T14:35:31.215Z,100851.16
2022-10-22T14:37:58.982Z,100844.72
2022-10-22T14:40:30.020Z,100834.81
2022-10-22T14:43:00.048Z,100840.69
2022-10-22T14:45:28.286Z,100837.41
2022-10-22T14:47:58.159Z,100845.44
2022-10-22T14:50:28.156Z,100850.59
2022-10-22T14:52:57.254Z,100845.16
2022-10-22T14:55:28.913Z,100844.34
2022-10-22T14:57:58.249Z,100844.66
2022-10-22T15:00:26.068Z,100842.41
2022-10-22T15:02:55.891Z,100804.84
2022-10-22T15:05:24.160Z,100848.91
2022-10-22T15:07:51.906Z,100854.75
2022-10-22T15:10:19.819Z,100847.34
2022-10-22T15:12:49.864Z,100822.47
2022-10-22T15:15:21.955Z,100821.03
2022-10-22T15:17:51.299Z,100852.31
2022-10-22T15:20:19.023Z,100858.50
2022-10-22T15:22:46.821Z,100850.78
2022-10-22T15:25:15.787Z,100821.53
2022-10-22T15:27:47.596Z,100849.13
2022-10-22T15:30:20.810Z,100849.19
2022-10-22T15:32:48.678Z,100855.84
2022-10-22T15:35:16.740Z,100849.50
2022-10-22T15:37:44.652Z,100826.38
2022-10-22T15:40:13.147Z,100857.75
2022-10-22T15:42:41.190Z,100848.44
2022-10-22T15:45:10.508Z,100816.44
2022-10-22T15:47:39.921Z,100838.41
2022-10-22T15:50:10.577Z,100843.34
2022-10-22T15:52:40.308Z,100816.53
2022-10-22T15:55:10.571Z,100843.44
2022-10-22T15:57:43.038Z,100843.59
2022-10-22T16:00:12.282Z,100813.34
2022-10-22T16:02:43.633Z,100848.84
2022-10-22T16:05:11.796Z,100833.94
2022-10-22T16:07:39.987Z,100841.56
2022-10-22T16:10:09.377Z,100807.03
2022-10-22T16:12:40.984Z,100833.97
2022-10-22T16:15:10.243Z,100837.34
2022-10-22T16:17:37.979Z,100832.56
2022-10-22T16:22:41.454Z,100834.47
2022-10-22T16:25:09.961Z,100837.84
2022-10-22T16:27:39.809Z,100781.41
2022-10-22T16:30:08.190Z,100834.47
2022-10-22T16:32:36.159Z,100834.25
2022-10-22T16:35:06.104Z,100841.06
2022-10-22T16:37:35.557Z,100843.03
2022-10-22T16:40:08.222Z,100784.06
2022-10-22T16:42:38.195Z,100801.63
2022-10-22T16:45:09.058Z,100836.97
2022-10-22T16:47:36.939Z,100835.47
2022-10-22T16:50:06.928Z,100844.88
2022-10-22T16:52:38.391Z,100840.47
2022-10-22T16:55:06.966Z,100842.16
2022-10-22T16:57:37.833Z,100835.88
2022-10-22T17:00:06.765Z,100841.31
2022-10-22T17:02:35.278Z,100837.78
2022-10-22T17:05:03.244Z,100841.94
2022-10-22T17:08:20.558Z,100838.56
2022-10-22T17:10:49.805Z,100834.59
2022-10-22T17:13:17.773Z,100832.13
2022-10-22T17:15:45.618Z,100790.03
2022-10-22T17:18:13.504Z,100836.50
2022-10-22T17:20:43.996Z,100835.63
2022-10-22T17:23:11.547Z,100833.97
2022-10-22T17:25:45.198Z,100837.34
2022-10-22T17:28:14.824Z,100831.34
2022-10-22T17:30:43.035Z,100833.03
2022-10-22T17:33:13.080Z,100785.16
2022-10-22T17:35:41.601Z,100829.63
2022-10-22T17:38:09.641Z,100833.03
2022-10-22T17:40:41.179Z,100835.53
2022-10-22T17:43:11.172Z,100833.81
2022-10-22T17:45:40.415Z,100831.34
2022-10-22T17:48:08.347Z,100824.53
2022-10-22T17:50:36.292Z,100824.44
2022-10-22T17:53:04.320Z,100825.41
2022-10-22T17:55:34.786Z,100828.81
2022-10-22T17:58:02.563Z,100824.63
2022-10-22T18:00:33.458Z,100823.03
2022-10-22T18:03:04.767Z,100826.28
2022-10-22T18:05:34.454Z,100820.81
2022-10-22T18:08:06.951Z,100819.22
2022-10-22T18:10:42.303Z,100812.63
2022-10-22T18:13:10.405Z,100815.28
2022-10-22T18:15:38.376Z,100814.41
2022-10-22T18:18:08.073Z,100816.22
2022-10-22T18:20:36.116Z,100812.63
2022-10-22T18:23:04.343Z,100812.50
2022-10-22T18:25:32.766Z,100805.06
2022-10-22T18:28:00.800Z,100811.72
2022-10-22T18:30:28.602Z,100815.28
2022-10-22T18:32:56.585Z,100785.81
2022-10-22T18:35:26.122Z,100808.38
2022-10-22T18:37:54.526Z,100815.97
2022-10-22T18:40:24.235Z,100784.75
2022-10-22T18:42:52.135Z,100810.13
2022-10-22T18:45:20.234Z,100791.38
2022-10-22T18:47:52.188Z,100813.41
2022-10-22T18:50:21.932Z,100803.97
2022-10-22T18:52:51.803Z,100802.41
2022-10-22T18:55:25.994Z,100804.09
2022-10-22T18:57:56.443Z,100799.81
2022-10-22T19:00:28.326Z,100804.09
2022-10-22T19:02:56.351Z,100802.47
2022-10-22T19:05:24.602Z,100812.97
2022-10-22T19:07:56.052Z,100775.13
2022-10-22T19:10:23.994Z,100814.59
2022-10-22T19:12:52.017Z,100812.25
2022-10-22T19:15:21.427Z,100814.19
2022-10-22T19:17:49.406Z,100810.91
2022-10-22T19:20:19.837Z,100805.19
2022-10-22T19:22:53.657Z,100779.78
2022-10-22T19:25:26.769Z,100813.00
2022-10-22T19:27:57.447Z,100806.16
2022-10-22T19:30:25.512Z,100792.22
2022-10-22T19:32:54.299Z,100811.56
2022-10-22T19:35:22.610Z,100807.53
2022-10-22T19:37:53.255Z,100787.53
2022-10-22T19:40:27.464Z,100813.47
2022-10-22T19:42:57.219Z,100811.06
2022-10-22T19:45:25.137Z,100803.66
2022-10-22T19:47:55.446Z,100785.16
2022-10-22T19:50:25.935Z,100811.72
2022-10-22T19:52:55.800Z,100808.47
2022-10-22T19:55:26.256Z,100816.94
2022-10-22T19:57:54.270Z,100814.53
2022-10-22T20:00:26.486Z,100812.72
2022-10-22T20:02:56.849Z,100798.56
2022-10-22T20:05:24.876Z,100817.03
2022-10-22T20:07:57.478Z,100819.97
2022-10-22T20:10:25.301Z,100816.53
2022-10-22T20:12:53.372Z,100817.94
2022-10-22T20:15:26.866Z,100822.75
2022-10-22T20:17:54.762Z,100819.38
2022-10-22T20:20:26.275Z,100785.75
2022-10-22T20:23:01.262Z,100825.16
2022-10-22T20:25:29.303Z,100831.66
2022-10-22T20:27:57.315Z,100832.91
2022-10-22T20:30:31.476Z,100829.09
2022-10-22T20:32:59.333Z,100821.63
2022-10-22T20:35:27.181Z,100832.72
2022-10-22T20:38:01.451Z,100840.44
2022-10-22T20:40:30.736Z,100811.28
2022-10-22T20:43:00.808Z,100837.84
2022-10-22T20:45:32.608Z,100849.50
2022-10-22T20:48:03.478Z,100849.69
2022-10-22T20:50:35.818Z,100848.16
2022-10-22T20:53:03.734Z,100834.13
2022-10-22T20:55:31.543Z,100863.19
2022-10-22T20:58:01.470Z,100856.28
2022-10-22T21:00:35.741Z,100853.09
2022-10-22T21:03:03.577Z,100860.22
2022-10-22T21:05:31.467Z,100831.88
2022-10-22T21:07:59.564Z,100858.31
2022-10-22T21:10:32.260Z,100866.34
2022-10-22T21:13:00.535Z,100852.47
2022-10-22T21:15:30.089Z,100858.63
2022-10-22T21:17:57.872Z,100864.81
2022-10-22T21:20:25.939Z,100831.00
2022-10-22T21:22:53.854Z,100863.16
2022-10-22T21:25:21.651Z,100871.22
2022-10-22T21:27:51.734Z,100866.78
2022-10-22T21:30:21.560Z,100866.78
2022-10-22T21:32:51.783Z,100868.91
2022-10-22T21:35:21.770Z,100861.19
2022-10-22T21:37:51.504Z,100865.66
2022-10-22T21:40:19.329Z,100862.84
2022-10-22T21:42:50.924Z,100864.03
2022-10-22T21:45:22.430Z,100856.91
2022-10-22T21:47:53.731Z,100861.47
2022-10-22T21:50:21.665Z,100863.22
2022-10-22T21:52:49.499Z,100864.41
2022-10-22T21:55:21.754Z,100860.34
2022-10-22T21:57:51.398Z,100862.69
2022-10-22T22:00:22.215Z,100869.94
2022-10-22T22:02:53.345Z,100869.47
2022-10-22T22:05:21.807Z,100873.59
2022-10-22T22:07:49.588Z,100862.91
2022-10-22T22:10:21.551Z,100864.91
2022-10-22T22:12:49.350Z,100858.09
2022-10-22T22:15:17.504Z,100866.03
2022-10-22T22:17:49.792Z,100869.13
2022-10-22T22:20:19.115Z,100867.75
2022-10-22T22:22:46.911Z,100872.16
2022-10-22T22:25:19.406Z,100878.97
2022-10-22T22:27:47.216Z,100875.22
2022-10-22T22:30:15.641Z,100853.09
2022-10-22T22:32:47.461Z,100866.16
2022-10-22T22:35:15.477Z,100879.16
2022-10-22T22:37:44.677Z,100880.69
2022-10-22T22:40:16.851Z,100874.50
2022-10-22T22:42:44.816Z,100875.38
2022-10-22T22:45:12.601Z,100872.78
2022-10-22T22:47:44.858Z,100871.41
2022-10-22T22:50:12.795Z,100882.66
2022-10-22T22:52:40.988Z,100853.91
2022-10-22T22:55:14.710Z,100876.63
2022-10-22T22:57:42.541Z,100877.81
2022-10-22T23:00:11.482Z,100876.97
2022-10-22T23:02:44.304Z,100870.06
2022-10-22T23:05:12.414Z,100877.31
2022-10-22T23:07:40.190Z,100873.63
2022-10-22T23:10:13.860Z,100883.06
2022-10-22T23:12:41.954Z,100863.69
2022-10-22T23:15:10.630Z,100885.19
2022-10-22T23:17:40.497Z,100838.38
2022-10-22T23:20:11.179Z,100882.78
2022-10-22T23:22:39.161Z,100871.44
2022-10-22T23:25:09.964Z,100879.00
2022-10-22T23:27:42.831Z,100875.19
2022-10-22T23:30:11.935Z,100865.75
2022-10-22T23:32:39.775Z,100835.34
2022-10-22T23:35:12.568Z,100876.03
2022-10-22T23:37:40.756Z,100843.94
2022-10-22T23:40:09.860Z,100876.59
2022-10-22T23:42:46.737Z,100883.78
2022-10-22T23:45:14.605Z,100872.94
2022-10-22T23:47:44.870Z,100872.78
2022-10-22T23:50:14.961Z,100839.16
2022-10-22T23:52:43.082Z,100850.09
2022-10-22T23:55:13.488Z,100874.31
2022-10-22T23:57:44.568Z,100843.19
